sensor_id;sensor_type;location;lat;lon;timestamp;P1;durP1;ratioP1;P2;durP2;ratioP2
15608;SDS011;64278;45.642;13.756;2023-04-25T00:02:03;3.72;;;3.38;;
15608;SDS011;64278;45.642;13.756;2023-04-25T00:04:29;2.90;;;2.70;;
15608;SDS011;64278;45.642;13.756;2023-04-25T00:06:54;3.25;;;2.92;;
15608;SDS011;64278;45.642;13.756;2023-04-25T00:09:21;2.85;;;2.65;;
15608;SDS011;64278;45.642;13.756;2023-04-25T00:11:47;3.53;;;3.13;;
15608;SDS011;64278;45.642;13.756;2023-04-25T00:14:13;3.92;;;2.90;;
15608;SDS011;64278;45.642;13.756;2023-04-25T00:16:39;3.15;;;2.60;;
15608;SDS011;64278;45.642;13.756;2023-04-25T00:19:06;3.33;;;3.03;;
15608;SDS011;64278;45.642;13.756;2023-04-25T00:21:32;2.60;;;2.40;;
15608;SDS011;64278;45.642;13.756;2023-04-25T00:23:58;2.95;;;2.65;;
15608;SDS011;64278;45.642;13.756;2023-04-25T00:26:24;2.78;;;2.58;;
15608;SDS011;64278;45.642;13.756;2023-04-25T00:28:50;3.53;;;2.72;;
15608;SDS011;64278;45.642;13.756;2023-04-25T00:31:15;2.30;;;2.03;;
15608;SDS011;64278;45.642;13.756;2023-04-25T00:33:41;2.47;;;2.28;;
15608;SDS011;64278;45.642;13.756;2023-04-25T00:36:07;3.00;;;2.45;;
15608;SDS011;64278;45.642;13.756;2023-04-25T00:38:33;2.30;;;2.10;;
15608;SDS011;64278;45.642;13.756;2023-04-25T00:40:58;2.78;;;2.20;;
15608;SDS011;64278;45.642;13.756;2023-04-25T00:43:27;2.90;;;2.22;;
15608;SDS011;64278;45.642;13.756;2023-04-25T00:45:55;2.45;;;2.08;;
15608;SDS011;64278;45.642;13.756;2023-04-25T00:48:22;2.88;;;2.33;;
15608;SDS011;64278;45.642;13.756;2023-04-25T00:50:51;2.67;;;2.47;;
15608;SDS011;64278;45.642;13.756;2023-04-25T00:53:19;1.83;;;1.73;;
15608;SDS011;64278;45.642;13.756;2023-04-25T00:55:49;2.40;;;2.20;;
15608;SDS011;64278;45.642;13.756;2023-04-25T00:58:24;2.55;;;2.35;;
15608;SDS011;64278;45.642;13.756;2023-04-25T01:00:50;2.95;;;2.15;;
15608;SDS011;64278;45.642;13.756;2023-04-25T01:03:17;2.10;;;1.90;;
15608;SDS011;64278;45.642;13.756;2023-04-25T01:05:46;2.70;;;2.45;;
15608;SDS011;64278;45.642;13.756;2023-04-25T01:08:13;2.67;;;2.10;;
15608;SDS011;64278;45.642;13.756;2023-04-25T01:10:39;2.42;;;1.70;;
15608;SDS011;64278;45.642;13.756;2023-04-25T01:13:05;2.08;;;1.88;;
15608;SDS011;64278;45.642;13.756;2023-04-25T01:15:31;2.45;;;2.25;;
15608;SDS011;64278;45.642;13.756;2023-04-25T01:17:57;2.22;;;2.03;;
15608;SDS011;64278;45.642;13.756;2023-04-25T01:20:23;1.98;;;1.88;;
15608;SDS011;64278;45.642;13.756;2023-04-25T01:22:52;1.90;;;1.73;;
15608;SDS011;64278;45.642;13.756;2023-04-25T01:25:18;2.35;;;1.90;;
15608;SDS011;64278;45.642;13.756;2023-04-25T01:27:44;1.83;;;1.70;;
15608;SDS011;64278;45.642;13.756;2023-04-25T01:30:11;2.20;;;2.00;;
15608;SDS011;64278;45.642;13.756;2023-04-25T01:32:37;2.00;;;1.80;;
15608;SDS011;64278;45.642;13.756;2023-04-25T01:35:11;2.20;;;1.80;;
15608;SDS011;64278;45.642;13.756;2023-04-25T01:37:37;2.03;;;1.80;;
15608;SDS011;64278;45.642;13.756;2023-04-25T01:40:04;1.92;;;1.73;;
15608;SDS011;64278;45.642;13.756;2023-04-25T01:42:31;1.67;;;1.58;;
15608;SDS011;64278;45.642;13.756;2023-04-25T01:44:57;1.92;;;1.75;;
15608;SDS011;64278;45.642;13.756;2023-04-25T01:47:23;1.83;;;1.70;;
15608;SDS011;64278;45.642;13.756;2023-04-25T01:49:48;1.58;;;1.48;;
15608;SDS011;64278;45.642;13.756;2023-04-25T01:52:14;1.40;;;1.30;;
15608;SDS011;64278;45.642;13.756;2023-04-25T01:54:40;2.25;;;1.73;;
15608;SDS011;64278;45.642;13.756;2023-04-25T01:57:09;2.53;;;1.70;;
15608;SDS011;64278;45.642;13.756;2023-04-25T01:59:36;1.98;;;1.70;;
15608;SDS011;64278;45.642;13.756;2023-04-25T02:02:02;1.85;;;1.60;;
15608;SDS011;64278;45.642;13.756;2023-04-25T02:04:31;2.25;;;1.60;;
15608;SDS011;64278;45.642;13.756;2023-04-25T02:06:57;2.55;;;1.80;;
15608;SDS011;64278;45.642;13.756;2023-04-25T02:09:22;2.05;;;1.60;;
15608;SDS011;64278;45.642;13.756;2023-04-25T02:11:48;2.20;;;1.92;;
15608;SDS011;64278;45.642;13.756;2023-04-25T02:14:14;1.38;;;1.27;;
15608;SDS011;64278;45.642;13.756;2023-04-25T02:16:40;1.88;;;1.73;;
15608;SDS011;64278;45.642;13.756;2023-04-25T02:19:06;1.50;;;1.40;;
15608;SDS011;64278;45.642;13.756;2023-04-25T02:21:32;1.70;;;1.60;;
15608;SDS011;64278;45.642;13.756;2023-04-25T02:24:00;1.80;;;1.70;;
15608;SDS011;64278;45.642;13.756;2023-04-25T02:26:26;2.08;;;1.90;;
15608;SDS011;64278;45.642;13.756;2023-04-25T02:28:52;1.45;;;1.35;;
15608;SDS011;64278;45.642;13.756;2023-04-25T02:31:17;1.42;;;1.30;;
15608;SDS011;64278;45.642;13.756;2023-04-25T02:33:43;1.60;;;1.50;;
15608;SDS011;64278;45.642;13.756;2023-04-25T02:36:09;1.50;;;1.40;;
15608;SDS011;64278;45.642;13.756;2023-04-25T02:38:35;1.90;;;1.58;;
15608;SDS011;64278;45.642;13.756;2023-04-25T02:41:01;1.60;;;1.38;;
15608;SDS011;64278;45.642;13.756;2023-04-25T02:43:26;1.48;;;1.38;;
15608;SDS011;64278;45.642;13.756;2023-04-25T02:45:52;1.30;;;1.20;;
15608;SDS011;64278;45.642;13.756;2023-04-25T02:48:18;1.52;;;1.40;;
15608;SDS011;64278;45.642;13.756;2023-04-25T02:50:43;1.45;;;1.35;;
15608;SDS011;64278;45.642;13.756;2023-04-25T02:53:10;1.70;;;1.38;;
15608;SDS011;64278;45.642;13.756;2023-04-25T02:55:35;1.42;;;1.33;;
15608;SDS011;64278;45.642;13.756;2023-04-25T02:58:01;1.40;;;1.17;;
15608;SDS011;64278;45.642;13.756;2023-04-25T03:00:27;1.33;;;1.23;;
15608;SDS011;64278;45.642;13.756;2023-04-25T03:02:53;1.42;;;1.33;;
15608;SDS011;64278;45.642;13.756;2023-04-25T03:05:18;1.40;;;1.30;;
15608;SDS011;64278;45.642;13.756;2023-04-25T03:07:44;1.25;;;1.08;;
15608;SDS011;64278;45.642;13.756;2023-04-25T03:10:11;1.40;;;1.25;;
15608;SDS011;64278;45.642;13.756;2023-04-25T03:12:37;2.08;;;1.50;;
15608;SDS011;64278;45.642;13.756;2023-04-25T03:15:02;1.50;;;1.40;;
15608;SDS011;64278;45.642;13.756;2023-04-25T03:17:29;1.85;;;1.30;;
15608;SDS011;64278;45.642;13.756;2023-04-25T03:19:55;1.63;;;1.13;;
15608;SDS011;64278;45.642;13.756;2023-04-25T03:22:20;1.80;;;1.00;;
15608;SDS011;64278;45.642;13.756;2023-04-25T03:24:46;1.23;;;1.08;;
15608;SDS011;64278;45.642;13.756;2023-04-25T03:27:12;1.27;;;1.17;;
15608;SDS011;64278;45.642;13.756;2023-04-25T03:29:38;1.70;;;1.30;;
15608;SDS011;64278;45.642;13.756;2023-04-25T03:32:05;1.17;;;1.10;;
15608;SDS011;64278;45.642;13.756;2023-04-25T03:34:31;1.15;;;1.00;;
15608;SDS011;64278;45.642;13.756;2023-04-25T03:36:57;1.00;;;1.00;;
15608;SDS011;64278;45.642;13.756;2023-04-25T03:39:22;1.35;;;1.08;;
15608;SDS011;64278;45.642;13.756;2023-04-25T03:41:48;1.15;;;1.02;;
15608;SDS011;64278;45.642;13.756;2023-04-25T03:44:14;1.30;;;1.20;;
15608;SDS011;64278;45.642;13.756;2023-04-25T03:46:39;1.35;;;1.25;;
15608;SDS011;64278;45.642;13.756;2023-04-25T03:49:05;1.23;;;1.13;;
15608;SDS011;64278;45.642;13.756;2023-04-25T03:51:31;1.50;;;1.13;;
15608;SDS011;64278;45.642;13.756;2023-04-25T03:53:56;1.30;;;1.20;;
15608;SDS011;64278;45.642;13.756;2023-04-25T03:56:23;1.75;;;1.23;;
15608;SDS011;64278;45.642;13.756;2023-04-25T03:58:49;1.17;;;1.13;;
15608;SDS011;64278;45.642;13.756;2023-04-25T04:01:14;1.40;;;1.30;;
15608;SDS011;64278;45.642;13.756;2023-04-25T04:03:40;1.45;;;1.20;;
15608;SDS011;64278;45.642;13.756;2023-04-25T04:06:06;1.40;;;1.30;;
15608;SDS011;64278;45.642;13.756;2023-04-25T04:08:32;1.27;;;1.17;;
15608;SDS011;64278;45.642;13.756;2023-04-25T04:10:58;1.17;;;1.08;;
15608;SDS011;64278;45.642;13.756;2023-04-25T04:13:27;0.98;;;0.98;;
15608;SDS011;64278;45.642;13.756;2023-04-25T04:15:54;1.15;;;1.05;;
15608;SDS011;64278;45.642;13.756;2023-04-25T04:18:20;1.00;;;0.90;;
15608;SDS011;64278;45.642;13.756;2023-04-25T04:20:46;1.00;;;1.00;;
15608;SDS011;64278;45.642;13.756;2023-04-25T04:23:12;1.48;;;1.00;;
15608;SDS011;64278;45.642;13.756;2023-04-25T04:25:38;1.50;;;1.40;;
15608;SDS011;64278;45.642;13.756;2023-04-25T04:28:04;0.93;;;0.93;;
15608;SDS011;64278;45.642;13.756;2023-04-25T04:30:31;1.08;;;0.98;;
15608;SDS011;64278;45.642;13.756;2023-04-25T04:32:58;0.95;;;0.95;;
15608;SDS011;64278;45.642;13.756;2023-04-25T04:35:25;1.20;;;1.10;;
15608;SDS011;64278;45.642;13.756;2023-04-25T04:37:51;0.70;;;0.70;;
15608;SDS011;64278;45.642;13.756;2023-04-25T04:40:17;0.77;;;0.70;;
15608;SDS011;64278;45.642;13.756;2023-04-25T04:42:43;1.52;;;1.10;;
15608;SDS011;64278;45.642;13.756;2023-04-25T04:45:13;1.00;;;1.00;;
15608;SDS011;64278;45.642;13.756;2023-04-25T04:47:39;0.93;;;0.68;;
15608;SDS011;64278;45.642;13.756;2023-04-25T04:50:08;0.60;;;0.60;;
15608;SDS011;64278;45.642;13.756;2023-04-25T04:52:35;1.10;;;1.00;;
15608;SDS011;64278;45.642;13.756;2023-04-25T04:55:01;0.98;;;0.80;;
15608;SDS011;64278;45.642;13.756;2023-04-25T04:57:28;0.88;;;0.88;;
15608;SDS011;64278;45.642;13.756;2023-04-25T04:59:54;0.90;;;0.90;;
15608;SDS011;64278;45.642;13.756;2023-04-25T05:02:20;0.88;;;0.88;;
15608;SDS011;64278;45.642;13.756;2023-04-25T05:04:45;0.75;;;0.70;;
15608;SDS011;64278;45.642;13.756;2023-04-25T05:07:11;0.80;;;0.80;;
15608;SDS011;64278;45.642;13.756;2023-04-25T05:09:37;0.88;;;0.80;;
15608;SDS011;64278;45.642;13.756;2023-04-25T05:12:03;1.15;;;1.05;;
15608;SDS011;64278;45.642;13.756;2023-04-25T05:14:29;0.70;;;0.70;;
15608;SDS011;64278;45.642;13.756;2023-04-25T05:16:55;0.70;;;0.70;;
15608;SDS011;64278;45.642;13.756;2023-04-25T05:19:20;0.73;;;0.73;;
15608;SDS011;64278;45.642;13.756;2023-04-25T05:21:46;1.25;;;1.15;;
15608;SDS011;64278;45.642;13.756;2023-04-25T05:24:12;0.90;;;0.90;;
15608;SDS011;64278;45.642;13.756;2023-04-25T05:26:38;0.90;;;0.90;;
15608;SDS011;64278;45.642;13.756;2023-04-25T05:29:03;1.00;;;1.00;;
15608;SDS011;64278;45.642;13.756;2023-04-25T05:31:30;0.75;;;0.75;;
15608;SDS011;64278;45.642;13.756;2023-04-25T05:33:56;0.80;;;0.80;;
15608;SDS011;64278;45.642;13.756;2023-04-25T05:36:22;1.48;;;0.80;;
15608;SDS011;64278;45.642;13.756;2023-04-25T05:38:48;1.25;;;1.10;;
15608;SDS011;64278;45.642;13.756;2023-04-25T05:41:14;0.98;;;0.95;;
15608;SDS011;64278;45.642;13.756;2023-04-25T05:43:40;0.90;;;0.90;;
15608;SDS011;64278;45.642;13.756;2023-04-25T05:46:10;1.08;;;1.05;;
15608;SDS011;64278;45.642;13.756;2023-04-25T05:48:36;0.80;;;0.80;;
15608;SDS011;64278;45.642;13.756;2023-04-25T05:51:02;0.90;;;0.90;;
15608;SDS011;64278;45.642;13.756;2023-04-25T05:53:28;0.80;;;0.73;;
15608;SDS011;64278;45.642;13.756;2023-04-25T05:55:54;1.23;;;1.13;;
15608;SDS011;64278;45.642;13.756;2023-04-25T05:58:20;1.00;;;0.90;;
15608;SDS011;64278;45.642;13.756;2023-04-25T06:00:45;1.10;;;0.90;;
15608;SDS011;64278;45.642;13.756;2023-04-25T06:03:11;0.90;;;0.80;;
15608;SDS011;64278;45.642;13.756;2023-04-25T06:05:40;1.00;;;0.93;;
15608;SDS011;64278;45.642;13.756;2023-04-25T06:08:06;1.00;;;1.00;;
15608;SDS011;64278;45.642;13.756;2023-04-25T06:10:32;1.20;;;1.00;;
15608;SDS011;64278;45.642;13.756;2023-04-25T06:12:57;0.70;;;0.70;;
15608;SDS011;64278;45.642;13.756;2023-04-25T06:15:23;0.90;;;0.90;;
15608;SDS011;64278;45.642;13.756;2023-04-25T06:17:49;0.93;;;0.93;;
15608;SDS011;64278;45.642;13.756;2023-04-25T06:20:14;1.33;;;0.85;;
15608;SDS011;64278;45.642;13.756;2023-04-25T06:22:40;0.82;;;0.82;;
15608;SDS011;64278;45.642;13.756;2023-04-25T06:25:06;1.05;;;1.00;;
15608;SDS011;64278;45.642;13.756;2023-04-25T06:27:33;0.80;;;0.80;;
15608;SDS011;64278;45.642;13.756;2023-04-25T06:29:59;1.20;;;1.10;;
15608;SDS011;64278;45.642;13.756;2023-04-25T06:32:25;0.77;;;0.77;;
15608;SDS011;64278;45.642;13.756;2023-04-25T06:34:52;1.13;;;1.00;;
15608;SDS011;64278;45.642;13.756;2023-04-25T06:37:18;0.77;;;0.77;;
15608;SDS011;64278;45.642;13.756;2023-04-25T06:39:43;0.93;;;0.90;;
15608;SDS011;64278;45.642;13.756;2023-04-25T06:42:09;0.65;;;0.60;;
15608;SDS011;64278;45.642;13.756;2023-04-25T06:44:35;0.88;;;0.80;;
15608;SDS011;64278;45.642;13.756;2023-04-25T06:47:01;0.80;;;0.80;;
15608;SDS011;64278;45.642;13.756;2023-04-25T06:49:27;0.70;;;0.70;;
15608;SDS011;64278;45.642;13.756;2023-04-25T06:51:52;1.00;;;0.90;;
15608;SDS011;64278;45.642;13.756;2023-04-25T06:54:18;0.90;;;0.90;;
15608;SDS011;64278;45.642;13.756;2023-04-25T06:56:44;1.05;;;0.93;;
15608;SDS011;64278;45.642;13.756;2023-04-25T06:59:10;0.90;;;0.90;;
15608;SDS011;64278;45.642;13.756;2023-04-25T07:01:35;1.20;;;1.10;;
15608;SDS011;64278;45.642;13.756;2023-04-25T07:04:01;1.15;;;1.10;;
15608;SDS011;64278;45.642;13.756;2023-04-25T07:06:27;1.65;;;1.02;;
15608;SDS011;64278;45.642;13.756;2023-04-25T07:08:53;1.42;;;1.33;;
15608;SDS011;64278;45.642;13.756;2023-04-25T07:11:19;1.33;;;1.23;;
15608;SDS011;64278;45.642;13.756;2023-04-25T07:13:44;2.00;;;1.20;;
15608;SDS011;64278;45.642;13.756;2023-04-25T07:16:10;2.15;;;1.35;;
15608;SDS011;64278;45.642;13.756;2023-04-25T07:18:36;1.80;;;1.67;;
15608;SDS011;64278;45.642;13.756;2023-04-25T07:21:01;2.45;;;1.60;;
15608;SDS011;64278;45.642;13.756;2023-04-25T07:23:27;2.70;;;1.60;;
15608;SDS011;64278;45.642;13.756;2023-04-25T07:25:53;2.25;;;1.88;;
15608;SDS011;64278;45.642;13.756;2023-04-25T07:28:18;2.13;;;1.40;;
15608;SDS011;64278;45.642;13.756;2023-04-25T07:30:44;2.13;;;1.60;;
15608;SDS011;64278;45.642;13.756;2023-04-25T07:33:10;2.88;;;2.00;;
15608;SDS011;64278;45.642;13.756;2023-04-25T07:35:35;2.75;;;1.63;;
15608;SDS011;64278;45.642;13.756;2023-04-25T07:38:01;2.65;;;1.50;;
15608;SDS011;64278;45.642;13.756;2023-04-25T07:40:28;2.72;;;1.52;;
15608;SDS011;64278;45.642;13.756;2023-04-25T07:42:53;3.67;;;1.98;;
15608;SDS011;64278;45.642;13.756;2023-04-25T07:45:19;2.50;;;1.70;;
15608;SDS011;64278;45.642;13.756;2023-04-25T07:47:44;3.55;;;2.05;;
15608;SDS011;64278;45.642;13.756;2023-04-25T07:50:10;2.50;;;2.30;;
15608;SDS011;64278;45.642;13.756;2023-04-25T07:52:36;3.35;;;1.83;;
15608;SDS011;64278;45.642;13.756;2023-04-25T07:55:02;4.85;;;2.47;;
15608;SDS011;64278;45.642;13.756;2023-04-25T07:57:28;3.05;;;1.92;;
15608;SDS011;64278;45.642;13.756;2023-04-25T07:59:54;3.05;;;1.88;;
15608;SDS011;64278;45.642;13.756;2023-04-25T08:02:20;2.83;;;1.90;;
15608;SDS011;64278;45.642;13.756;2023-04-25T08:04:45;2.88;;;1.80;;
15608;SDS011;64278;45.642;13.756;2023-04-25T08:07:11;3.03;;;1.60;;
15608;SDS011;64278;45.642;13.756;2023-04-25T08:09:37;2.08;;;1.80;;
15608;SDS011;64278;45.642;13.756;2023-04-25T08:12:03;2.85;;;1.73;;
15608;SDS011;64278;45.642;13.756;2023-04-25T08:14:29;2.97;;;1.88;;
15608;SDS011;64278;45.642;13.756;2023-04-25T08:17:00;3.42;;;1.45;;
15608;SDS011;64278;45.642;13.756;2023-04-25T08:19:28;3.72;;;1.70;;
15608;SDS011;64278;45.642;13.756;2023-04-25T08:21:54;3.40;;;1.90;;
15608;SDS011;64278;45.642;13.756;2023-04-25T08:24:21;1.83;;;1.65;;
15608;SDS011;64278;45.642;13.756;2023-04-25T08:26:47;1.95;;;1.58;;
15608;SDS011;64278;45.642;13.756;2023-04-25T08:29:13;1.75;;;1.60;;
15608;SDS011;64278;45.642;13.756;2023-04-25T08:31:39;2.53;;;1.75;;
15608;SDS011;64278;45.642;13.756;2023-04-25T08:34:04;3.35;;;1.50;;
15608;SDS011;64278;45.642;13.756;2023-04-25T08:36:30;1.40;;;1.30;;
15608;SDS011;64278;45.642;13.756;2023-04-25T08:38:57;3.60;;;2.05;;
15608;SDS011;64278;45.642;13.756;2023-04-25T08:41:23;4.03;;;1.80;;
15608;SDS011;64278;45.642;13.756;2023-04-25T08:43:50;3.95;;;1.85;;
15608;SDS011;64278;45.642;13.756;2023-04-25T08:46:18;2.13;;;1.35;;
15608;SDS011;64278;45.642;13.756;2023-04-25T08:48:45;2.85;;;1.52;;
15608;SDS011;64278;45.642;13.756;2023-04-25T08:51:14;3.15;;;1.30;;
15608;SDS011;64278;45.642;13.756;2023-04-25T08:53:45;2.17;;;1.50;;
15608;SDS011;64278;45.642;13.756;2023-04-25T08:56:14;2.10;;;1.58;;
15608;SDS011;64278;45.642;13.756;2023-04-25T08:58:43;1.70;;;1.40;;
15608;SDS011;64278;45.642;13.756;2023-04-25T09:01:10;1.77;;;1.63;;
15608;SDS011;64278;45.642;13.756;2023-04-25T09:03:36;1.92;;;1.27;;
15608;SDS011;64278;45.642;13.756;2023-04-25T09:06:02;3.08;;;1.00;;
15608;SDS011;64278;45.642;13.756;2023-04-25T09:08:28;1.58;;;0.93;;
15608;SDS011;64278;45.642;13.756;2023-04-25T09:10:55;1.45;;;1.25;;
15608;SDS011;64278;45.642;13.756;2023-04-25T09:13:24;2.05;;;1.40;;
15608;SDS011;64278;45.642;13.756;2023-04-25T09:15:55;3.08;;;2.05;;
15608;SDS011;64278;45.642;13.756;2023-04-25T09:18:22;4.32;;;1.95;;
15608;SDS011;64278;45.642;13.756;2023-04-25T09:20:49;1.15;;;1.02;;
15608;SDS011;64278;45.642;13.756;2023-04-25T09:23:14;1.50;;;1.27;;
15608;SDS011;64278;45.642;13.756;2023-04-25T09:25:40;2.10;;;1.10;;
15608;SDS011;64278;45.642;13.756;2023-04-25T09:28:08;2.55;;;1.45;;
15608;SDS011;64278;45.642;13.756;2023-04-25T09:30:35;2.40;;;1.17;;
15608;SDS011;64278;45.642;13.756;2023-04-25T09:33:05;2.55;;;1.40;;
15608;SDS011;64278;45.642;13.756;2023-04-25T09:35:39;2.13;;;1.35;;
15608;SDS011;64278;45.642;13.756;2023-04-25T09:38:09;2.42;;;1.20;;
15608;SDS011;64278;45.642;13.756;2023-04-25T09:40:42;1.73;;;1.10;;
15608;SDS011;64278;45.642;13.756;2023-04-25T09:43:19;1.85;;;1.42;;
15608;SDS011;64278;45.642;13.756;2023-04-25T09:45:46;3.33;;;1.10;;
15608;SDS011;64278;45.642;13.756;2023-04-25T09:48:22;3.28;;;1.30;;
15608;SDS011;64278;45.642;13.756;2023-04-25T09:51:03;3.10;;;1.40;;
15608;SDS011;64278;45.642;13.756;2023-04-25T09:53:30;2.78;;;1.65;;
15608;SDS011;64278;45.642;13.756;2023-04-25T09:55:57;1.45;;;1.13;;
15608;SDS011;64278;45.642;13.756;2023-04-25T09:58:25;3.33;;;1.50;;
15608;SDS011;64278;45.642;13.756;2023-04-25T10:00:54;3.05;;;1.10;;
15608;SDS011;64278;45.642;13.756;2023-04-25T10:03:24;4.65;;;1.30;;
15608;SDS011;64278;45.642;13.756;2023-04-25T10:05:51;2.58;;;1.02;;
15608;SDS011;64278;45.642;13.756;2023-04-25T10:08:18;1.35;;;1.05;;
15608;SDS011;64278;45.642;13.756;2023-04-25T10:10:46;1.15;;;1.00;;
15608;SDS011;64278;45.642;13.756;2023-04-25T10:13:13;1.95;;;1.00;;
15608;SDS011;64278;45.642;13.756;2023-04-25T10:15:40;2.95;;;1.30;;
15608;SDS011;64278;45.642;13.756;2023-04-25T10:18:06;3.47;;;1.25;;
15608;SDS011;64278;45.642;13.756;2023-04-25T10:20:33;2.03;;;1.10;;
15608;SDS011;64278;45.642;13.756;2023-04-25T10:23:03;4.13;;;1.52;;
15608;SDS011;64278;45.642;13.756;2023-04-25T10:25:36;3.42;;;1.02;;
15608;SDS011;64278;45.642;13.756;2023-04-25T10:28:03;4.13;;;1.30;;
15608;SDS011;64278;45.642;13.756;2023-04-25T10:30:29;5.60;;;1.55;;
15608;SDS011;64278;45.642;13.756;2023-04-25T10:32:55;1.30;;;0.98;;
15608;SDS011;64278;45.642;13.756;2023-04-25T10:35:24;3.03;;;1.27;;
15608;SDS011;64278;45.642;13.756;2023-04-25T10:38:05;2.75;;;1.08;;
15608;SDS011;64278;45.642;13.756;2023-04-25T10:40:34;5.18;;;0.98;;
15608;SDS011;64278;45.642;13.756;2023-04-25T10:45:57;3.20;;;1.75;;
15608;SDS011;64278;45.642;13.756;2023-04-25T10:48:25;3.92;;;1.75;;
15608;SDS011;64278;45.642;13.756;2023-04-25T10:51:10;2.88;;;1.45;;
15608;SDS011;64278;45.642;13.756;2023-04-25T10:53:37;3.88;;;1.63;;
15608;SDS011;64278;45.642;13.756;2023-04-25T10:56:09;2.22;;;1.15;;
15608;SDS011;64278;45.642;13.756;2023-04-25T10:58:44;3.47;;;1.42;;
15608;SDS011;64278;45.642;13.756;2023-04-25T11:01:12;2.60;;;1.60;;
15608;SDS011;64278;45.642;13.756;2023-04-25T11:03:42;3.35;;;1.33;;
15608;SDS011;64278;45.642;13.756;2023-04-25T11:06:17;2.65;;;1.25;;
15608;SDS011;64278;45.642;13.756;2023-04-25T11:08:57;3.70;;;1.60;;
15608;SDS011;64278;45.642;13.756;2023-04-25T11:11:26;3.70;;;1.38;;
15608;SDS011;64278;45.642;13.756;2023-04-25T11:13:52;1.65;;;1.27;;
15608;SDS011;64278;45.642;13.756;2023-04-25T11:16:17;2.95;;;1.27;;
15608;SDS011;64278;45.642;13.756;2023-04-25T11:18:43;2.70;;;1.17;;
15608;SDS011;64278;45.642;13.756;2023-04-25T11:21:10;2.05;;;1.15;;
15608;SDS011;64278;45.642;13.756;2023-04-25T11:23:36;3.47;;;1.73;;
15608;SDS011;64278;45.642;13.756;2023-04-25T11:26:02;1.50;;;1.15;;
15608;SDS011;64278;45.642;13.756;2023-04-25T11:28:28;2.60;;;1.33;;
15608;SDS011;64278;45.642;13.756;2023-04-25T11:30:55;5.60;;;1.38;;
15608;SDS011;64278;45.642;13.756;2023-04-25T11:33:24;2.10;;;1.20;;
15608;SDS011;64278;45.642;13.756;2023-04-25T11:35:52;2.47;;;0.90;;
15608;SDS011;64278;45.642;13.756;2023-04-25T11:38:20;1.40;;;1.30;;
15608;SDS011;64278;45.642;13.756;2023-04-25T11:40:49;2.85;;;1.17;;
15608;SDS011;64278;45.642;13.756;2023-04-25T11:43:17;1.40;;;1.20;;
15608;SDS011;64278;45.642;13.756;2023-04-25T11:45:45;1.30;;;1.20;;
15608;SDS011;64278;45.642;13.756;2023-04-25T11:48:12;2.90;;;1.20;;
15608;SDS011;64278;45.642;13.756;2023-04-25T11:50:39;2.03;;;1.02;;
15608;SDS011;64278;45.642;13.756;2023-04-25T11:53:05;1.90;;;0.75;;
15608;SDS011;64278;45.642;13.756;2023-04-25T11:55:31;1.85;;;1.05;;
15608;SDS011;64278;45.642;13.756;2023-04-25T11:57:59;3.45;;;1.08;;
15608;SDS011;64278;45.642;13.756;2023-04-25T12:00:25;1.60;;;1.10;;
15608;SDS011;64278;45.642;13.756;2023-04-25T12:02:55;1.35;;;1.10;;
15608;SDS011;64278;45.642;13.756;2023-04-25T12:05:26;2.03;;;0.98;;
15608;SDS011;64278;45.642;13.756;2023-04-25T12:07:54;1.27;;;0.90;;
15608;SDS011;64278;45.642;13.756;2023-04-25T12:10:19;1.85;;;0.88;;
15608;SDS011;64278;45.642;13.756;2023-04-25T12:12:46;1.48;;;0.95;;
15608;SDS011;64278;45.642;13.756;2023-04-25T12:15:16;1.88;;;1.05;;
15608;SDS011;64278;45.642;13.756;2023-04-25T12:17:47;2.85;;;1.00;;
15608;SDS011;64278;45.642;13.756;2023-04-25T12:20:15;1.50;;;1.02;;
15608;SDS011;64278;45.642;13.756;2023-04-25T12:22:42;1.10;;;1.00;;
15608;SDS011;64278;45.642;13.756;2023-04-25T12:25:13;0.80;;;0.70;;
15608;SDS011;64278;45.642;13.756;2023-04-25T12:28:17;1.35;;;1.10;;
15608;SDS011;64278;45.642;13.756;2023-04-25T12:30:54;1.10;;;1.00;;
15608;SDS011;64278;45.642;13.756;2023-04-25T12:33:29;2.58;;;1.20;;
15608;SDS011;64278;45.642;13.756;2023-04-25T12:35:59;1.00;;;0.90;;
15608;SDS011;64278;45.642;13.756;2023-04-25T12:38:29;1.75;;;1.05;;
15608;SDS011;64278;45.642;13.756;2023-04-25T12:40:56;2.72;;;1.27;;
15608;SDS011;64278;45.642;13.756;2023-04-25T12:43:23;1.08;;;0.98;;
15608;SDS011;64278;45.642;13.756;2023-04-25T12:45:52;1.00;;;0.70;;
15608;SDS011;64278;45.642;13.756;2023-04-25T12:48:20;2.13;;;1.10;;
15608;SDS011;64278;45.642;13.756;2023-04-25T12:50:46;3.33;;;1.00;;
15608;SDS011;64278;45.642;13.756;2023-04-25T12:53:14;2.20;;;1.02;;
15608;SDS011;64278;45.642;13.756;2023-04-25T12:55:42;1.63;;;0.90;;
15608;SDS011;64278;45.642;13.756;2023-04-25T12:58:10;2.35;;;1.00;;
15608;SDS011;64278;45.642;13.756;2023-04-25T13:00:36;0.70;;;0.70;;
15608;SDS011;64278;45.642;13.756;2023-04-25T13:03:02;0.85;;;0.80;;
15608;SDS011;64278;45.642;13.756;2023-04-25T13:05:29;1.15;;;1.05;;
15608;SDS011;64278;45.642;13.756;2023-04-25T13:07:55;1.55;;;0.85;;
15608;SDS011;64278;45.642;13.756;2023-04-25T13:10:21;1.20;;;1.10;;
15608;SDS011;64278;45.642;13.756;2023-04-25T13:12:47;1.88;;;0.90;;
15608;SDS011;64278;45.642;13.756;2023-04-25T13:15:12;1.88;;;1.10;;
15608;SDS011;64278;45.642;13.756;2023-04-25T13:17:40;1.50;;;0.80;;
15608;SDS011;64278;45.642;13.756;2023-04-25T13:20:06;1.80;;;0.80;;
15608;SDS011;64278;45.642;13.756;2023-04-25T13:22:34;2.38;;;1.00;;
15608;SDS011;64278;45.642;13.756;2023-04-25T13:25:05;1.27;;;1.15;;
15608;SDS011;64278;45.642;13.756;2023-04-25T13:27:32;3.67;;;1.40;;
15608;SDS011;64278;45.642;13.756;2023-04-25T13:30:02;1.70;;;1.02;;
15608;SDS011;64278;45.642;13.756;2023-04-25T13:32:38;3.50;;;1.80;;
15608;SDS011;64278;45.642;13.756;2023-04-25T13:35:05;2.10;;;0.90;;
15608;SDS011;64278;45.642;13.756;2023-04-25T13:37:32;1.52;;;1.17;;
15608;SDS011;64278;45.642;13.756;2023-04-25T13:40:01;1.85;;;1.30;;
15608;SDS011;64278;45.642;13.756;2023-04-25T13:42:30;1.92;;;1.38;;
15608;SDS011;64278;45.642;13.756;2023-04-25T13:44:56;2.08;;;1.20;;
15608;SDS011;64278;45.642;13.756;2023-04-25T13:47:22;3.13;;;1.45;;
15608;SDS011;64278;45.642;13.756;2023-04-25T13:49:48;1.20;;;1.10;;
15608;SDS011;64278;45.642;13.756;2023-04-25T13:52:14;2.25;;;1.42;;
15608;SDS011;64278;45.642;13.756;2023-04-25T13:54:40;2.58;;;1.08;;
15608;SDS011;64278;45.642;13.756;2023-04-25T13:57:06;2.47;;;1.27;;
15608;SDS011;64278;45.642;13.756;2023-04-25T13:59:32;2.22;;;1.35;;
15608;SDS011;64278;45.642;13.756;2023-04-25T14:01:58;1.80;;;1.20;;
15608;SDS011;64278;45.642;13.756;2023-04-25T14:04:24;2.35;;;1.25;;
15608;SDS011;64278;45.642;13.756;2023-04-25T14:06:50;3.40;;;1.30;;
15608;SDS011;64278;45.642;13.756;2023-04-25T14:09:16;3.33;;;1.10;;
15608;SDS011;64278;45.642;13.756;2023-04-25T14:11:42;1.83;;;1.10;;
15608;SDS011;64278;45.642;13.756;2023-04-25T14:14:08;1.55;;;1.02;;
15608;SDS011;64278;45.642;13.756;2023-04-25T14:16:34;0.98;;;0.93;;
15608;SDS011;64278;45.642;13.756;2023-04-25T14:19:00;2.55;;;1.20;;
15608;SDS011;64278;45.642;13.756;2023-04-25T14:21:27;1.98;;;0.90;;
15608;SDS011;64278;45.642;13.756;2023-04-25T14:23:56;1.70;;;1.10;;
15608;SDS011;64278;45.642;13.756;2023-04-25T14:26:22;2.45;;;1.00;;
15608;SDS011;64278;45.642;13.756;2023-04-25T14:28:47;1.10;;;1.00;;
15608;SDS011;64278;45.642;13.756;2023-04-25T14:31:13;1.58;;;1.15;;
15608;SDS011;64278;45.642;13.756;2023-04-25T14:33:39;2.00;;;1.02;;
15608;SDS011;64278;45.642;13.756;2023-04-25T14:36:07;0.95;;;0.88;;